Time;durP1;ratioP1;P1;durP2;ratioP2;P2;SDS_P1;SDS_P2;PMS_P1;PMS_P2;Temp;Humidity;BMP_temperature;BMP_pressure;BME280_temperature;BME280_humidity;BME280_pressure;Samples;Min_cycle;Max_cycle;Signal;HPM_P1;HPM_P2
2023/07/27 00:00:35;;;;;;;1.73;1.00;;;;;;;;;;5108002;28;20093;-62
2023/07/27 00:03:05;;;;;;;1.20;0.82;;;;;;;;;;5109282;28;20548;-61
2023/07/27 00:05:34;;;;;;;3.05;0.88;;;;;;;;;;5108602;27;20048;-61
2023/07/27 00:08:02;;;;;;;2.25;1.25;;;;;;;;;;5106344;28;20469;-61
2023/07/27 00:10:31;;;;;;;1.38;0.80;;;;;;;;;;5106127;28;20048;-63
2023/07/27 00:13:00;;;;;;;2.25;1.10;;;;;;;;;;5105014;28;20060;-62
2023/07/27 00:15:28;;;;;;;1.63;0.90;;;;;;;;;;5108311;28;20471;-61
2023/07/27 00:17:56;;;;;;;1.40;1.00;;;;;;;;;;5108955;27;20071;-61
2023/07/27 00:20:26;;;;;;;2.28;1.10;;;;;;;;;;5109821;28;20116;-61
2023/07/27 00:22:55;;;;;;;2.13;1.30;;;;;;;;;;5102497;28;20122;-63
2023/07/27 00:25:23;;;;;;;1.63;0.88;;;;;;;;;;5106576;28;20128;-63
2023/07/27 00:27:51;;;;;;;1.70;0.93;;;;;;;;;;5108222;27;20060;-62
2023/07/27 00:30:20;;;;;;;5.55;1.10;;;;;;;;;;5109577;28;20051;-62
2023/07/27 00:32:48;;;;;;;1.70;1.02;;;;;;;;;;5105335;28;20043;-61
2023/07/27 00:35:17;;;;;;;1.63;0.95;;;;;;;;;;5108809;28;20100;-63
2023/07/27 00:37:46;;;;;;;1.88;0.88;;;;;;;;;;5109648;28;20131;-61
2023/07/27 00:40:15;;;;;;;1.17;0.80;;;;;;;;;;5108018;28;20052;-62
2023/07/27 00:42:43;;;;;;;1.88;1.10;;;;;;;;;;5105341;27;20043;-62
2023/07/27 00:45:11;;;;;;;2.17;1.08;;;;;;;;;;5107721;28;20135;-64
2023/07/27 00:47:40;;;;;;;4.30;0.98;;;;;;;;;;5108093;27;20108;-61
2023/07/27 00:50:09;;;;;;;1.45;0.90;;;;;;;;;;5106847;28;20044;-62
2023/07/27 00:52:37;;;;;;;1.33;0.77;;;;;;;;;;5107875;28;20104;-63
2023/07/27 00:55:07;;;;;;;2.10;0.90;;;;;;;;;;5102542;27;20071;-62
2023/07/27 00:57:36;;;;;;;1.85;1.00;;;;;;;;;;5103257;28;20047;-60
2023/07/27 01:00:04;;;;;;;1.75;1.00;;;;;;;;;;5107281;28;20535;-61
2023/07/27 01:02:33;;;;;;;3.03;0.95;;;;;;;;;;5109252;22;20532;-65
2023/07/27 01:05:01;;;;;;;3.25;0.90;;;;;;;;;;5062067;28;20060;-65
2023/07/27 01:07:30;;;;;;;2.08;0.93;;;;;;;;;;5049895;28;20465;-65
2023/07/27 01:09:58;;;;;;;2.58;1.20;;;;;;;;;;5049075;28;20106;-68
2023/07/27 01:12:33;;;;;;;1.58;0.82;;;;;;;;;;5050751;28;20102;-64
2023/07/27 01:15:01;;;;;;;;;;;;;;;;;;5048189;28;20076;-64
2023/07/27 01:17:32;;;;;;;1.88;0.88;;;;;;;;;;5047006;28;19967;-65
2023/07/27 01:20:05;;;;;;;2.83;1.20;;;;;;;;;;5048787;28;20505;-65
2023/07/27 01:22:44;;;;;;;1.55;1.00;;;;;;;;;;5048430;28;20041;-65
2023/07/27 01:25:21;;;;;;;2.30;0.93;;;;;;;;;;5048887;28;20405;-66
2023/07/27 01:27:54;;;;;;;1.35;0.85;;;;;;;;;;5043300;28;20048;-65
2023/07/27 01:30:26;;;;;;;0.90;0.70;;;;;;;;;;5051760;28;20126;-65
2023/07/27 01:32:59;;;;;;;2.38;1.10;;;;;;;;;;5050147;28;20049;-68
2023/07/27 01:35:29;;;;;;;3.10;1.10;;;;;;;;;;5048907;28;20060;-64
2023/07/27 01:37:59;;;;;;;2.63;1.70;;;;;;;;;;5046872;28;20102;-63
2023/07/27 01:40:28;;;;;;;3.85;1.10;;;;;;;;;;5047604;28;20379;-70
2023/07/27 01:42:57;;;;;;;1.27;1.00;;;;;;;;;;5046890;28;20656;-64
2023/07/27 01:45:25;;;;;;;1.90;1.00;;;;;;;;;;5047000;28;20250;-63
2023/07/27 01:47:54;;;;;;;1.65;0.80;;;;;;;;;;5048748;28;20182;-66
2023/07/27 01:50:24;;;;;;;4.15;1.35;;;;;;;;;;5046076;28;20128;-63
2023/07/27 01:52:53;;;;;;;1.25;0.90;;;;;;;;;;5051422;28;20073;-68
2023/07/27 01:55:22;;;;;;;3.05;1.15;;;;;;;;;;5052666;28;20132;-63
2023/07/27 01:57:52;;;;;;;2.28;1.05;;;;;;;;;;5045498;28;20105;-65
2023/07/27 02:00:20;;;;;;;3.67;1.20;;;;;;;;;;5049804;28;20098;-64
2023/07/27 02:02:49;;;;;;;1.83;0.90;;;;;;;;;;5060028;28;20048;-69
2023/07/27 02:05:18;;;;;;;1.92;1.23;;;;;;;;;;5067179;28;20044;-64
2023/07/27 02:07:49;;;;;;;2.75;1.10;;;;;;;;;;5075091;28;20508;-65
2023/07/27 02:10:19;;;;;;;1.48;0.80;;;;;;;;;;5069525;28;20087;-65
2023/07/27 02:12:51;;;;;;;2.00;1.20;;;;;;;;;;5068681;28;20037;-64
2023/07/27 02:15:23;;;;;;;1.27;0.90;;;;;;;;;;5072735;28;20142;-64
2023/07/27 02:17:55;;;;;;;1.23;0.93;;;;;;;;;;5069745;28;20048;-63
2023/07/27 02:20:24;;;;;;;3.05;1.25;;;;;;;;;;5083649;28;20047;-64
2023/07/27 02:22:54;;;;;;;1.83;0.90;;;;;;;;;;5085297;28;20106;-64
2023/07/27 02:25:23;;;;;;;2.22;1.55;;;;;;;;;;5086654;28;20470;-64
2023/07/27 02:27:51;;;;;;;1.92;1.08;;;;;;;;;;5084055;28;20493;-64
2023/07/27 02:30:20;;;;;;;3.75;1.10;;;;;;;;;;5086379;28;20447;-63
2023/07/27 02:32:48;;;;;;;1.33;0.90;;;;;;;;;;5085765;28;20075;-64
2023/07/27 02:35:16;;;;;;;1.98;0.80;;;;;;;;;;5085212;28;20044;-64
2023/07/27 02:37:45;;;;;;;2.72;1.10;;;;;;;;;;5082464;28;20591;-63
2023/07/27 02:40:15;;;;;;;1.67;0.98;;;;;;;;;;5084655;28;20091;-64
2023/07/27 02:42:43;;;;;;;2.35;1.10;;;;;;;;;;5082800;28;20173;-63
2023/07/27 02:45:11;;;;;;;2.42;0.90;;;;;;;;;;5085429;28;20071;-64
2023/07/27 02:47:40;;;;;;;1.73;0.95;;;;;;;;;;5086366;28;20109;-65
2023/07/27 02:50:09;;;;;;;1.77;0.98;;;;;;;;;;5086937;28;20527;-63
2023/07/27 02:52:37;;;;;;;2.03;1.02;;;;;;;;;;5085413;28;20048;-63
2023/07/27 02:55:06;;;;;;;1.75;1.15;;;;;;;;;;5086144;28;20044;-63
2023/07/27 02:57:36;;;;;;;1.27;0.73;;;;;;;;;;5083542;28;20048;-63
2023/07/27 03:00:04;;;;;;;2.28;1.15;;;;;;;;;;5087025;28;20106;-63
2023/07/27 03:02:33;;;;;;;2.05;1.40;;;;;;;;;;5084842;28;20106;-63
2023/07/27 03:05:02;;;;;;;2.03;0.93;;;;;;;;;;5085368;28;20048;-66
2023/07/27 03:07:33;;;;;;;4.53;1.67;;;;;;;;;;5086915;28;20044;-64
2023/07/27 03:10:01;;;;;;;3.60;1.58;;;;;;;;;;5084701;28;20125;-64
2023/07/27 03:12:29;;;;;;;4.35;1.63;;;;;;;;;;5083525;28;20048;-63
2023/07/27 03:14:59;;;;;;;6.00;1.70;;;;;;;;;;5082717;28;20067;-64
2023/07/27 03:17:28;;;;;;;3.42;1.23;;;;;;;;;;5085365;28;20518;-64
2023/07/27 03:19:56;;;;;;;3.85;1.17;;;;;;;;;;5089641;28;20047;-63
2023/07/27 03:22:24;;;;;;;3.35;1.30;;;;;;;;;;5088624;28;20048;-64
2023/07/27 03:24:53;;;;;;;2.75;1.20;;;;;;;;;;5085339;28;20048;-63
2023/07/27 03:27:21;;;;;;;2.58;1.02;;;;;;;;;;5084823;28;20055;-64
2023/07/27 03:29:49;;;;;;;1.25;1.00;;;;;;;;;;5086356;28;20585;-65
2023/07/27 03:32:19;;;;;;;1.80;1.00;;;;;;;;;;5084105;28;20071;-64
2023/07/27 03:34:47;;;;;;;2.10;1.02;;;;;;;;;;5089516;28;20480;-63
2023/07/27 03:37:16;;;;;;;4.18;1.45;;;;;;;;;;5088136;28;20079;-65
2023/07/27 03:39:44;;;;;;;2.03;1.05;;;;;;;;;;5088070;28;20458;-66
2023/07/27 03:42:12;;;;;;;1.50;0.85;;;;;;;;;;5085727;28;20052;-66
2023/07/27 03:44:42;;;;;;;2.22;1.10;;;;;;;;;;5083516;28;20106;-65
2023/07/27 03:47:11;;;;;;;1.67;1.10;;;;;;;;;;5089049;28;20056;-65
2023/07/27 03:49:40;;;;;;;1.73;1.02;;;;;;;;;;5089000;28;20084;-65
2023/07/27 03:52:09;;;;;;;2.03;1.00;;;;;;;;;;5088072;28;20109;-65
2023/07/27 03:54:37;;;;;;;4.32;1.00;;;;;;;;;;5086342;28;20074;-65
2023/07/27 03:57:08;;;;;;;1.23;0.90;;;;;;;;;;5084901;28;20118;-66
2023/07/27 03:59:37;;;;;;;3.13;1.60;;;;;;;;;;5089709;28;20413;-63
2023/07/27 04:02:05;;;;;;;3.45;1.17;;;;;;;;;;5088483;28;20520;-63
2023/07/27 04:04:34;;;;;;;2.13;1.10;;;;;;;;;;5087522;28;20068;-63
2023/07/27 04:07:03;;;;;;;3.13;1.30;;;;;;;;;;5090030;28;20048;-65
2023/07/27 04:09:32;;;;;;;2.47;1.27;;;;;;;;;;5083531;28;20042;-64
2023/07/27 04:12:00;;;;;;;8.25;1.40;;;;;;;;;;5085877;28;20052;-64
2023/07/27 04:14:29;;;;;;;2.17;0.98;;;;;;;;;;5084267;28;20095;-63
2023/07/27 04:16:57;;;;;;;4.47;1.38;;;;;;;;;;5081741;28;20076;-63
2023/07/27 04:19:25;;;;;;;2.67;1.13;;;;;;;;;;5086446;28;20048;-64
2023/07/27 04:21:54;;;;;;;2.78;1.20;;;;;;;;;;5086797;28;20572;-64
2023/07/27 04:24:23;;;;;;;3.85;1.17;;;;;;;;;;5085241;28;20062;-64
2023/07/27 04:26:52;;;;;;;5.00;1.38;;;;;;;;;;5088917;28;20044;-63
2023/07/27 04:29:20;;;;;;;2.08;1.20;;;;;;;;;;5082831;28;20103;-66
2023/07/27 04:31:49;;;;;;;3.00;1.48;;;;;;;;;;5087140;28;20408;-64
2023/07/27 04:34:18;;;;;;;2.70;1.15;;;;;;;;;;5082003;28;20101;-67
2023/07/27 04:36:47;;;;;;;2.22;1.02;;;;;;;;;;5082494;28;20546;-65
2023/07/27 04:39:15;;;;;;;4.50;1.33;;;;;;;;;;5085160;28;20119;-63
2023/07/27 04:41:45;;;;;;;4.78;1.35;;;;;;;;;;5083171;28;20048;-63
2023/07/27 04:44:14;;;;;;;2.97;1.27;;;;;;;;;;5081247;28;21630;-67
2023/07/27 04:46:42;;;;;;;1.38;0.98;;;;;;;;;;5080225;28;20044;-63
2023/07/27 04:49:10;;;;;;;3.05;1.00;;;;;;;;;;5088050;28;20175;-64
2023/07/27 04:51:39;;;;;;;2.63;1.20;;;;;;;;;;5085505;28;20625;-65
2023/07/27 04:54:07;;;;;;;2.88;1.10;;;;;;;;;;5082696;28;20051;-64
2023/07/27 04:56:38;;;;;;;3.13;1.08;;;;;;;;;;5078821;28;20097;-64
2023/07/27 04:59:08;;;;;;;3.80;1.42;;;;;;;;;;5088213;28;20114;-68
2023/07/27 05:01:37;;;;;;;3.83;1.73;;;;;;;;;;5084412;28;20485;-63
2023/07/27 05:04:05;;;;;;;2.13;1.08;;;;;;;;;;5082644;28;21030;-63
2023/07/27 05:06:34;;;;;;;3.03;1.27;;;;;;;;;;5083540;28;20062;-65
2023/07/27 05:09:04;;;;;;;3.58;1.40;;;;;;;;;;5079791;28;20195;-63
2023/07/27 05:11:32;;;;;;;1.80;1.13;;;;;;;;;;5085960;28;20063;-63
2023/07/27 05:14:00;;;;;;;4.05;1.40;;;;;;;;;;5085224;28;20793;-64
2023/07/27 05:16:31;;;;;;;2.08;0.95;;;;;;;;;;5083840;28;20502;-63
2023/07/27 05:19:00;;;;;;;2.55;1.30;;;;;;;;;;5083874;28;20048;-63
2023/07/27 05:21:28;;;;;;;4.50;1.33;;;;;;;;;;5085077;28;20071;-65
2023/07/27 05:23:57;;;;;;;1.98;0.98;;;;;;;;;;5082929;28;20071;-69
2023/07/27 05:26:25;;;;;;;2.70;1.25;;;;;;;;;;5083344;28;20501;-63
2023/07/27 05:28:53;;;;;;;4.90;1.25;;;;;;;;;;5084989;28;20048;-64
2023/07/27 05:31:22;;;;;;;2.30;1.00;;;;;;;;;;5080023;28;20048;-62
2023/07/27 05:33:52;;;;;;;2.47;1.15;;;;;;;;;;5081012;28;20061;-64
2023/07/27 05:36:20;;;;;;;6.13;1.77;;;;;;;;;;5080181;28;20121;-67
2023/07/27 05:38:48;;;;;;;3.65;1.60;;;;;;;;;;5083763;28;20450;-62
2023/07/27 05:41:18;;;;;;;3.65;1.60;;;;;;;;;;5086163;28;20125;-69
2023/07/27 05:43:47;;;;;;;3.15;1.40;;;;;;;;;;5085704;28;20094;-65
2023/07/27 05:46:15;;;;;;;4.68;1.50;;;;;;;;;;5087788;28;20113;-63
2023/07/27 05:48:43;;;;;;;3.88;1.48;;;;;;;;;;5088328;28;20048;-65
2023/07/27 05:51:13;;;;;;;3.90;1.63;;;;;;;;;;5080990;28;20068;-62
2023/07/27 05:53:42;;;;;;;7.78;1.70;;;;;;;;;;5082732;28;20044;-64
2023/07/27 05:56:10;;;;;;;3.30;1.75;;;;;;;;;;5084856;28;20109;-62
2023/07/27 05:58:42;;;;;;;6.35;1.52;;;;;;;;;;5087040;28;20062;-66
2023/07/27 06:01:10;;;;;;;4.97;1.95;;;;;;;;;;5085760;28;20109;-65
2023/07/27 06:03:39;;;;;;;4.25;1.50;;;;;;;;;;5087329;28;20336;-61
2023/07/27 06:06:10;;;;;;;3.10;1.40;;;;;;;;;;5084533;28;20051;-66
2023/07/27 06:08:41;;;;;;;5.50;1.70;;;;;;;;;;5082288;28;20067;-63
2023/07/27 06:11:09;;;;;;;3.17;1.75;;;;;;;;;;5087422;28;20169;-65
2023/07/27 06:13:38;;;;;;;3.60;1.30;;;;;;;;;;5083550;28;20044;-64
2023/07/27 06:16:06;;;;;;;3.22;1.75;;;;;;;;;;5084024;28;20439;-66
2023/07/27 06:18:35;;;;;;;8.15;1.77;;;;;;;;;;5086349;28;20047;-63
2023/07/27 06:21:03;;;;;;;3.78;1.70;;;;;;;;;;5085338;28;20082;-63
2023/07/27 06:23:32;;;;;;;2.72;2.00;;;;;;;;;;5076446;28;20056;-64
2023/07/27 06:26:02;;;;;;;2.97;1.67;;;;;;;;;;5081974;28;20521;-64
2023/07/27 06:28:30;;;;;;;2.88;1.70;;;;;;;;;;5082027;28;20117;-63
2023/07/27 06:30:58;;;;;;;4.65;1.48;;;;;;;;;;5080841;28;20109;-63
2023/07/27 06:33:27;;;;;;;3.35;1.50;;;;;;;;;;5079752;28;20447;-71
2023/07/27 06:35:55;;;;;;;3.03;1.70;;;;;;;;;;5082499;28;20073;-66
2023/07/27 06:38:23;;;;;;;4.22;1.70;;;;;;;;;;5082705;28;20740;-66
2023/07/27 06:40:52;;;;;;;6.38;2.00;;;;;;;;;;5086526;28;20048;-62
2023/07/27 06:43:22;;;;;;;3.28;2.13;;;;;;;;;;5081700;28;20120;-67
2023/07/27 06:45:50;;;;;;;4.82;1.75;;;;;;;;;;5084230;28;20052;-67
2023/07/27 06:48:18;;;;;;;3.35;2.00;;;;;;;;;;5085052;28;20047;-65
2023/07/27 06:50:47;;;;;;;1.77;1.23;;;;;;;;;;5086896;28;20135;-70
2023/07/27 06:53:15;;;;;;;2.72;1.70;;;;;;;;;;5086670;28;20105;-63
2023/07/27 06:55:44;;;;;;;3.28;1.80;;;;;;;;;;5086820;28;20071;-64
2023/07/27 06:58:12;;;;;;;2.80;1.35;;;;;;;;;;5089348;28;20089;-64
2023/07/27 07:00:42;;;;;;;1.88;1.30;;;;;;;;;;5085305;28;20141;-65
2023/07/27 07:03:10;;;;;;;2.17;1.52;;;;;;;;;;5088496;28;20044;-66
2023/07/27 07:05:39;;;;;;;2.08;1.20;;;;;;;;;;5088296;28;20044;-63
2023/07/27 07:08:08;;;;;;;5.57;1.85;;;;;;;;;;5086687;28;20074;-65
2023/07/27 07:10:36;;;;;;;3.47;1.55;;;;;;;;;;5088535;28;20105;-64
2023/07/27 07:13:04;;;;;;;2.97;1.65;;;;;;;;;;5087619;28;20041;-64
2023/07/27 07:15:33;;;;;;;4.90;1.70;;;;;;;;;;5085432;28;20515;-65
2023/07/27 07:18:03;;;;;;;2.97;1.55;;;;;;;;;;5085656;28;20036;-64
2023/07/27 07:20:31;;;;;;;4.43;1.92;;;;;;;;;;5088210;28;20088;-64
2023/07/27 07:23:00;;;;;;;3.42;1.38;;;;;;;;;;5084893;28;20120;-64
2023/07/27 07:25:28;;;;;;;5.07;1.50;;;;;;;;;;5083719;28;20047;-65
2023/07/27 07:27:57;;;;;;;3.08;1.33;;;;;;;;;;5088300;28;20070;-63
2023/07/27 07:30:25;;;;;;;2.40;1.20;;;;;;;;;;5084947;28;20614;-65
2023/07/27 07:32:53;;;;;;;3.40;1.60;;;;;;;;;;5087596;28;20071;-62
2023/07/27 07:35:23;;;;;;;3.60;1.33;;;;;;;;;;5086476;28;20044;-62
2023/07/27 07:37:52;;;;;;;2.28;1.10;;;;;;;;;;5087226;28;20044;-67
2023/07/27 07:40:23;;;;;;;3.15;1.40;;;;;;;;;;5085902;28;20040;-63
2023/07/27 07:42:52;;;;;;;3.28;1.50;;;;;;;;;;5086926;28;20093;-66
2023/07/27 07:45:21;;;;;;;4.45;1.90;;;;;;;;;;5087111;28;20441;-63
2023/07/27 07:47:49;;;;;;;2.85;1.42;;;;;;;;;;5089711;28;21464;-63
2023/07/27 07:50:17;;;;;;;2.10;1.60;;;;;;;;;;5087434;28;20052;-64
2023/07/27 07:52:47;;;;;;;2.80;1.20;;;;;;;;;;5088431;28;20443;-66
2023/07/27 07:55:19;;;;;;;4.45;1.15;;;;;;;;;;5085601;28;20131;-62
2023/07/27 07:57:47;;;;;;;2.95;1.17;;;;;;;;;;5089906;28;20044;-63
2023/07/27 08:00:16;;;;;;;2.45;1.40;;;;;;;;;;5088748;28;20054;-62
2023/07/27 08:02:44;;;;;;;2.15;1.30;;;;;;;;;;5086016;28;20055;-64
2023/07/27 08:05:13;;;;;;;3.58;1.60;;;;;;;;;;5086513;28;20059;-64
2023/07/27 08:07:41;;;;;;;3.58;1.42;;;;;;;;;;5088772;28;20044;-63
2023/07/27 08:10:12;;;;;;;2.53;1.52;;;;;;;;;;5083666;28;20447;-62
2023/07/27 08:12:40;;;;;;;2.38;1.33;;;;;;;;;;5088110;28;20048;-65
2023/07/27 08:15:09;;;;;;;3.15;1.30;;;;;;;;;;5086133;28;20156;-63
2023/07/27 08:17:37;;;;;;;2.05;1.35;;;;;;;;;;5088235;28;20051;-64
2023/07/27 08:20:06;;;;;;;4.03;1.58;;;;;;;;;;5087806;28;20072;-64
2023/07/27 08:22:35;;;;;;;2.97;1.58;;;;;;;;;;5088346;28;20048;-62
2023/07/27 08:25:04;;;;;;;3.63;1.70;;;;;;;;;;5085249;28;20052;-62
2023/07/27 08:27:50;;;;;;;3.10;1.75;;;;;;;;;;5084161;28;20158;-63
2023/07/27 08:30:20;;;;;;;6.55;1.50;;;;;;;;;;5085931;28;20149;-64
2023/07/27 08:32:48;;;;;;;2.45;1.27;;;;;;;;;;5084745;28;20047;-63
2023/07/27 08:35:17;;;;;;;3.67;1.35;;;;;;;;;;5087578;28;20048;-63
2023/07/27 08:37:45;;;;;;;3.75;1.35;;;;;;;;;;5087051;28;20083;-64
2023/07/27 08:40:14;;;;;;;5.47;1.40;;;;;;;;;;5084527;28;20455;-63
2023/07/27 08:42:44;;;;;;;2.45;1.48;;;;;;;;;;5085805;28;20047;-63
2023/07/27 08:45:15;;;;;;;2.42;1.23;;;;;;;;;;5085882;28;20192;-62
2023/07/27 08:47:43;;;;;;;4.05;1.48;;;;;;;;;;5084481;28;20049;-62
2023/07/27 08:50:13;;;;;;;2.25;1.38;;;;;;;;;;5081853;28;20139;-63
2023/07/27 08:52:42;;;;;;;2.45;1.08;;;;;;;;;;5084315;28;20105;-64
2023/07/27 08:55:10;;;;;;;3.38;1.40;;;;;;;;;;5081324;28;20056;-63
2023/07/27 08:57:39;;;;;;;2.80;1.75;;;;;;;;;;5087611;28;20048;-63
2023/07/27 09:00:10;;;;;;;1.88;1.42;;;;;;;;;;5084442;28;20108;-63
2023/07/27 09:02:40;;;;;;;3.20;1.55;;;;;;;;;;5085077;28;20083;-63
2023/07/27 09:05:10;;;;;;;2.08;1.50;;;;;;;;;;5081480;28;20056;-64
2023/07/27 09:07:40;;;;;;;2.72;1.30;;;;;;;;;;5085246;28;20071;-63
2023/07/27 09:10:10;;;;;;;3.15;1.50;;;;;;;;;;5086529;28;20047;-63
2023/07/27 09:12:41;;;;;;;3.28;1.67;;;;;;;;;;5089455;28;20052;-64
2023/07/27 09:15:13;;;;;;;4.22;1.52;;;;;;;;;;5081509;28;20079;-67
2023/07/27 09:17:43;;;;;;;4.85;1.60;;;;;;;;;;5078540;28;20422;-67
2023/07/27 09:20:13;;;;;;;3.63;1.50;;;;;;;;;;5082037;28;20070;-62
2023/07/27 09:22:45;;;;;;;3.90;1.17;;;;;;;;;;5086988;28;20395;-63
2023/07/27 09:25:14;;;;;;;2.33;1.23;;;;;;;;;;5083292;28;20052;-67
2023/07/27 09:27:43;;;;;;;1.88;1.15;;;;;;;;;;5086632;28;20041;-63
2023/07/27 09:30:12;;;;;;;2.58;1.20;;;;;;;;;;5086604;28;20144;-63
2023/07/27 09:32:41;;;;;;;2.25;1.00;;;;;;;;;;5084183;28;20109;-64
2023/07/27 09:35:15;;;;;;;2.78;1.40;;;;;;;;;;5085120;28;20082;-63
2023/07/27 09:37:44;;;;;;;2.97;1.35;;;;;;;;;;5083745;28;20052;-64
2023/07/27 09:40:14;;;;;;;3.15;1.20;;;;;;;;;;5087955;28;20051;-64
2023/07/27 09:42:43;;;;;;;2.58;1.50;;;;;;;;;;5085973;28;20063;-63
2023/07/27 09:45:11;;;;;;;2.47;1.30;;;;;;;;;;5084786;28;20516;-62
2023/07/27 09:47:40;;;;;;;2.00;1.30;;;;;;;;;;5087572;28;20052;-62
2023/07/27 09:50:09;;;;;;;3.35;1.63;;;;;;;;;;5085528;28;20079;-66
2023/07/27 09:52:40;;;;;;;2.28;1.33;;;;;;;;;;5082483;28;20408;-63
2023/07/27 09:55:09;;;;;;;1.90;1.20;;;;;;;;;;5082102;28;20122;-63
2023/07/27 09:57:37;;;;;;;3.45;1.60;;;;;;;;;;5085634;28;20044;-63
2023/07/27 10:00:06;;;;;;;1.98;1.17;;;;;;;;;;5085553;28;20047;-63
2023/07/27 10:02:35;;;;;;;2.80;1.58;;;;;;;;;;5086684;28;20064;-63
2023/07/27 10:05:04;;;;;;;4.47;1.40;;;;;;;;;;5084616;28;20416;-63
2023/07/27 10:07:32;;;;;;;1.73;1.10;;;;;;;;;;5088205;28;20083;-63
2023/07/27 10:10:38;;;;;;;4.00;1.30;;;;;;;;;;5083371;28;20044;-63
2023/07/27 10:13:08;;;;;;;3.25;1.45;;;;;;;;;;5081946;28;20040;-62
2023/07/27 10:15:41;;;;;;;3.95;1.20;;;;;;;;;;5083239;28;20052;-63
2023/07/27 10:18:10;;;;;;;3.20;1.38;;;;;;;;;;5080989;28;20047;-65
2023/07/27 10:20:38;;;;;;;4.40;1.30;;;;;;;;;;5087169;28;20048;-64
2023/07/27 10:23:10;;;;;;;1.80;1.10;;;;;;;;;;5083942;28;20574;-63
2023/07/27 10:25:57;;;;;;;2.15;1.33;;;;;;;;;;5084043;28;20139;-63
2023/07/27 10:28:32;;;;;;;2.72;1.45;;;;;;;;;;5080786;28;20098;-63
2023/07/27 10:31:20;;;;;;;2.40;1.30;;;;;;;;;;5083130;28;20113;-63
2023/07/27 10:33:48;;;;;;;1.83;0.95;;;;;;;;;;5080512;28;20640;-63
2023/07/27 10:36:19;;;;;;;2.58;1.25;;;;;;;;;;5079640;28;20106;-65
2023/07/27 10:38:53;;;;;;;4.50;1.70;;;;;;;;;;5081822;28;20088;-63
2023/07/27 10:41:23;;;;;;;1.73;1.10;;;;;;;;;;5079600;28;20099;-62
2023/07/27 10:44:10;;;;;;;2.78;1.75;;;;;;;;;;5078940;28;20465;-63
2023/07/27 10:46:40;;;;;;;2.70;1.25;;;;;;;;;;5080174;28;20048;-63
2023/07/27 10:49:10;;;;;;;1.92;1.30;;;;;;;;;;5078659;28;20051;-63
2023/07/27 10:51:39;;;;;;;2.47;1.40;;;;;;;;;;5079883;28;20064;-63
2023/07/27 10:54:07;;;;;;;2.25;1.48;;;;;;;;;;5078641;28;20098;-62
2023/07/27 10:56:36;;;;;;;2.95;1.35;;;;;;;;;;5078012;28;20057;-63
2023/07/27 10:59:05;;;;;;;6.53;1.52;;;;;;;;;;5082889;28;20056;-64
2023/07/27 11:01:34;;;;;;;4.07;1.20;;;;;;;;;;5083550;28;20044;-63
2023/07/27 11:04:04;;;;;;;3.47;1.65;;;;;;;;;;5084393;28;20708;-63
2023/07/27 11:06:41;;;;;;;2.33;1.00;;;;;;;;;;5077971;28;20044;-65
2023/07/27 11:09:13;;;;;;;2.72;1.15;;;;;;;;;;5085166;28;20052;-65
2023/07/27 11:11:42;;;;;;;4.97;2.10;;;;;;;;;;5083818;28;20052;-63
2023/07/27 11:14:10;;;;;;;2.85;1.50;;;;;;;;;;5082679;28;20484;-62
2023/07/27 11:16:39;;;;;;;2.58;1.10;;;;;;;;;;5082086;28;20041;-63
2023/07/27 11:19:09;;;;;;;3.17;1.35;;;;;;;;;;5082112;28;20044;-67
2023/07/27 11:21:40;;;;;;;3.17;1.50;;;;;;;;;;5083114;28;20127;-62
2023/07/27 11:24:09;;;;;;;1.98;1.20;;;;;;;;;;5083782;28;20052;-62
2023/07/27 11:26:38;;;;;;;3.60;1.70;;;;;;;;;;5084415;28;20044;-66
2023/07/27 11:29:07;;;;;;;2.13;1.25;;;;;;;;;;5087838;28;20443;-62
2023/07/27 11:31:35;;;;;;;1.83;1.00;;;;;;;;;;5079047;28;20044;-66
2023/07/27 11:34:04;;;;;;;2.72;1.30;;;;;;;;;;5080345;28;20079;-62
2023/07/27 11:36:37;;;;;;;4.18;1.50;;;;;;;;;;5085093;28;20052;-62
2023/07/27 11:39:08;;;;;;;2.42;1.10;;;;;;;;;;5081188;28;20040;-61
2023/07/27 11:41:37;;;;;;;2.40;1.45;;;;;;;;;;5082281;28;20048;-62
2023/07/27 11:44:16;;;;;;;2.38;1.15;;;;;;;;;;5082670;28;20492;-65
2023/07/27 11:46:47;;;;;;;2.10;1.20;;;;;;;;;;5082643;28;20101;-62
2023/07/27 11:49:16;;;;;;;2.28;1.27;;;;;;;;;;5081763;28;20040;-62
2023/07/27 11:51:47;;;;;;;2.25;1.30;;;;;;;;;;5080622;28;20048;-66
2023/07/27 11:54:23;;;;;;;2.53;1.30;;;;;;;;;;5079801;28;20051;-62
2023/07/27 11:56:52;;;;;;;3.35;1.63;;;;;;;;;;5084338;28;20658;-64
2023/07/27 11:59:21;;;;;;;4.55;1.33;;;;;;;;;;5083087;28;20061;-64
2023/07/27 12:01:50;;;;;;;3.08;1.60;;;;;;;;;;5078608;28;20045;-63
2023/07/27 12:04:18;;;;;;;2.72;1.35;;;;;;;;;;5078777;28;20050;-62
2023/07/27 12:06:49;;;;;;;3.13;1.55;;;;;;;;;;5077965;28;20138;-64
2023/07/27 12:09:17;;;;;;;2.45;1.30;;;;;;;;;;5076954;28;20044;-63
2023/07/27 12:11:46;;;;;;;3.65;1.63;;;;;;;;;;5078012;28;20563;-63
2023/07/27 12:14:15;;;;;;;2.72;1.42;;;;;;;;;;5077552;28;20126;-66
2023/07/27 12:16:45;;;;;;;2.63;1.35;;;;;;;;;;5078096;28;20048;-62
2023/07/27 12:19:17;;;;;;;1.88;1.20;;;;;;;;;;5084034;28;20067;-64
2023/07/27 12:21:50;;;;;;;2.63;1.10;;;;;;;;;;5081664;28;20076;-62
2023/07/27 12:24:23;;;;;;;2.83;1.50;;;;;;;;;;5080528;28;20075;-65
2023/07/27 12:26:53;;;;;;;1.73;1.17;;;;;;;;;;5083171;28;20213;-62
2023/07/27 12:29:25;;;;;;;2.83;1.23;;;;;;;;;;5085119;28;20052;-64
2023/07/27 12:31:56;;;;;;;4.65;1.35;;;;;;;;;;5085411;28;20505;-62
2023/07/27 12:34:27;;;;;;;2.08;1.27;;;;;;;;;;5081056;28;20040;-64
2023/07/27 12:36:59;;;;;;;2.08;1.38;;;;;;;;;;5082744;28;20093;-66
2023/07/27 12:39:30;;;;;;;3.03;1.42;;;;;;;;;;5078580;28;20060;-63
2023/07/27 12:41:58;;;;;;;1.70;0.95;;;;;;;;;;5087386;28;20447;-66
2023/07/27 12:44:30;;;;;;;1.90;1.30;;;;;;;;;;5082251;28;20474;-66
2023/07/27 12:46:58;;;;;;;2.35;1.20;;;;;;;;;;5083493;28;20052;-63
2023/07/27 12:49:27;;;;;;;3.63;1.13;;;;;;;;;;5082628;28;20121;-62
2023/07/27 12:51:55;;;;;;;1.20;1.00;;;;;;;;;;5082681;28;20051;-63
2023/07/27 12:54:25;;;;;;;0.93;0.82;;;;;;;;;;5082967;28;20063;-64
2023/07/27 12:56:53;;;;;;;1.63;0.90;;;;;;;;;;5083938;28;20048;-64
2023/07/27 12:59:22;;;;;;;1.52;0.90;;;;;;;;;;5080083;28;20044;-66
2023/07/27 13:01:50;;;;;;;3.10;0.90;;;;;;;;;;5079719;28;20052;-63
2023/07/27 13:04:19;;;;;;;2.13;1.55;;;;;;;;;;5081173;28;20054;-62
2023/07/27 13:06:48;;;;;;;2.58;1.30;;;;;;;;;;5077088;28;20105;-62
2023/07/27 13:09:16;;;;;;;1.83;1.00;;;;;;;;;;5077891;28;20125;-65
2023/07/27 13:11:46;;;;;;;1.25;0.82;;;;;;;;;;5081255;28;20047;-64
2023/07/27 13:14:15;;;;;;;2.25;0.98;;;;;;;;;;5080143;28;20284;-62
2023/07/27 13:16:43;;;;;;;2.42;1.25;;;;;;;;;;5079941;28;20048;-62
2023/07/27 13:19:12;;;;;;;1.77;0.98;;;;;;;;;;5081077;28;20071;-63
2023/07/27 13:21:40;;;;;;;2.42;1.25;;;;;;;;;;5079637;28;20055;-63
2023/07/27 13:24:08;;;;;;;1.90;1.17;;;;;;;;;;5078498;28;20040;-65
2023/07/27 13:26:37;;;;;;;2.47;1.48;;;;;;;;;;5079553;28;20281;-63
2023/07/27 13:29:07;;;;;;;3.30;1.30;;;;;;;;;;5079974;28;20104;-63
2023/07/27 13:31:35;;;;;;;1.27;0.80;;;;;;;;;;5079312;28;20052;-62
2023/07/27 13:34:04;;;;;;;1.92;1.10;;;;;;;;;;5081329;28;20508;-62
2023/07/27 13:36:32;;;;;;;1.08;0.70;;;;;;;;;;5076742;28;20439;-65
2023/07/27 13:39:01;;;;;;;2.05;1.40;;;;;;;;;;5082853;28;20139;-66
2023/07/27 13:41:30;;;;;;;3.33;1.35;;;;;;;;;;5081765;28;20047;-63
2023/07/27 13:43:59;;;;;;;6.13;1.30;;;;;;;;;;5080219;28;20059;-64
2023/07/27 13:46:29;;;;;;;1.73;1.05;;;;;;;;;;5082771;28;20048;-63
2023/07/27 13:48:57;;;;;;;2.05;1.23;;;;;;;;;;5080959;28;20052;-64
2023/07/27 13:51:26;;;;;;;1.83;1.08;;;;;;;;;;5078408;28;20136;-63
2023/07/27 13:53:55;;;;;;;3.28;1.20;;;;;;;;;;5080467;28;20075;-63
2023/07/27 13:56:23;;;;;;;1.83;1.05;;;;;;;;;;5081801;28;20048;-62
2023/07/27 13:58:52;;;;;;;3.60;1.55;;;;;;;;;;5078816;28;20630;-64
2023/07/27 14:01:20;;;;;;;3.97;1.23;;;;;;;;;;5085022;28;20493;-62
2023/07/27 14:03:50;;;;;;;1.50;0.95;;;;;;;;;;5083905;28;20071;-62
2023/07/27 14:06:19;;;;;;;1.50;1.15;;;;;;;;;;5082419;28;20503;-62
2023/07/27 14:08:48;;;;;;;1.58;1.00;;;;;;;;;;5084344;28;20074;-63
2023/07/27 14:11:16;;;;;;;2.88;1.20;;;;;;;;;;5082903;28;20048;-64
2023/07/27 14:13:44;;;;;;;2.55;1.17;;;;;;;;;;5083242;28;20101;-65
2023/07/27 14:16:13;;;;;;;1.90;1.00;;;;;;;;;;5084108;28;20056;-65
2023/07/27 14:18:43;;;;;;;1.30;0.80;;;;;;;;;;5083457;28;20127;-65
2023/07/27 14:21:13;;;;;;;3.05;1.30;;;;;;;;;;5083355;28;20054;-66
2023/07/27 14:23:41;;;;;;;1.45;1.00;;;;;;;;;;5084050;28;20048;-62
2023/07/27 14:26:10;;;;;;;3.63;1.25;;;;;;;;;;5083297;28;20097;-63
2023/07/27 14:28:40;;;;;;;1.80;1.20;;;;;;;;;;5083360;28;20044;-63
2023/07/27 14:31:08;;;;;;;1.85;1.10;;;;;;;;;;5084101;28;20137;-61
2023/07/27 14:33:42;;;;;;;2.00;1.23;;;;;;;;;;5084803;28;20048;-62
2023/07/27 14:36:10;;;;;;;2.03;1.10;;;;;;;;;;5081652;28;20043;-63
2023/07/27 14:38:40;;;;;;;3.15;1.35;;;;;;;;;;5083917;28;20040;-64
2023/07/27 14:41:08;;;;;;;4.72;1.20;;;;;;;;;;5085091;28;20097;-62
2023/07/27 14:43:40;;;;;;;3.80;1.35;;;;;;;;;;5081750;28;20402;-67
2023/07/27 14:46:11;;;;;;;2.20;1.25;;;;;;;;;;5085184;28;20123;-62
2023/07/27 14:48:40;;;;;;;2.72;1.13;;;;;;;;;;5083337;28;20054;-63
2023/07/27 14:51:16;;;;;;;1.67;1.20;;;;;;;;;;5081657;28;20051;-63
2023/07/27 14:53:46;;;;;;;3.13;1.30;;;;;;;;;;5083192;28;20056;-64
2023/07/27 14:56:20;;;;;;;2.25;1.25;;;;;;;;;;5083230;28;20131;-67